sensor_id;sensor_type;location;lat;lon;timestamp;P1;durP1;ratioP1;P2;durP2;ratioP2
64686;SDS011;51113;53.646;-113.674;2023-12-20T00:01:50;1.75;;;1.17;;
64686;SDS011;51113;53.646;-113.674;2023-12-20T00:04:19;2.90;;;1.25;;
64686;SDS011;51113;53.646;-113.674;2023-12-20T00:06:48;2.35;;;1.00;;
64686;SDS011;51113;53.646;-113.674;2023-12-20T00:09:17;1.80;;;1.08;;
64686;SDS011;51113;53.646;-113.674;2023-12-20T00:11:45;2.38;;;1.25;;
64686;SDS011;51113;53.646;-113.674;2023-12-20T00:14:14;1.77;;;1.20;;
64686;SDS011;51113;53.646;-113.674;2023-12-20T00:16:43;1.20;;;1.10;;
64686;SDS011;51113;53.646;-113.674;2023-12-20T00:19:11;2.33;;;1.30;;
64686;SDS011;51113;53.646;-113.674;2023-12-20T00:21:40;1.83;;;1.20;;
64686;SDS011;51113;53.646;-113.674;2023-12-20T00:24:09;1.92;;;1.27;;
64686;SDS011;51113;53.646;-113.674;2023-12-20T00:26:38;2.40;;;1.13;;
64686;SDS011;51113;53.646;-113.674;2023-12-20T00:29:06;2.10;;;1.20;;
64686;SDS011;51113;53.646;-113.674;2023-12-20T00:31:35;1.58;;;0.98;;
64686;SDS011;51113;53.646;-113.674;2023-12-20T00:34:04;3.00;;;1.75;;
64686;SDS011;51113;53.646;-113.674;2023-12-20T00:36:33;1.73;;;1.20;;
64686;SDS011;51113;53.646;-113.674;2023-12-20T00:39:01;2.58;;;1.38;;
64686;SDS011;51113;53.646;-113.674;2023-12-20T00:41:31;1.85;;;1.30;;
64686;SDS011;51113;53.646;-113.674;2023-12-20T00:44:00;1.33;;;1.10;;
64686;SDS011;51113;53.646;-113.674;2023-12-20T00:46:28;1.35;;;1.13;;
64686;SDS011;51113;53.646;-113.674;2023-12-20T00:48:57;3.72;;;1.20;;
64686;SDS011;51113;53.646;-113.674;2023-12-20T00:51:26;2.85;;;1.40;;
64686;SDS011;51113;53.646;-113.674;2023-12-20T00:53:54;2.10;;;1.30;;
64686;SDS011;51113;53.646;-113.674;2023-12-20T00:56:23;2.78;;;1.73;;
64686;SDS011;51113;53.646;-113.674;2023-12-20T00:58:52;2.05;;;1.40;;
64686;SDS011;51113;53.646;-113.674;2023-12-20T01:01:21;2.60;;;1.35;;
64686;SDS011;51113;53.646;-113.674;2023-12-20T01:03:50;2.75;;;1.52;;
64686;SDS011;51113;53.646;-113.674;2023-12-20T01:06:19;5.45;;;2.47;;
64686;SDS011;51113;53.646;-113.674;2023-12-20T01:08:48;4.40;;;2.10;;
64686;SDS011;51113;53.646;-113.674;2023-12-20T01:11:16;1.73;;;1.23;;
64686;SDS011;51113;53.646;-113.674;2023-12-20T01:13:45;1.90;;;1.30;;
64686;SDS011;51113;53.646;-113.674;2023-12-20T01:16:14;1.88;;;1.23;;
64686;SDS011;51113;53.646;-113.674;2023-12-20T01:18:42;3.65;;;1.83;;
64686;SDS011;51113;53.646;-113.674;2023-12-20T01:21:10;2.53;;;1.50;;
64686;SDS011;51113;53.646;-113.674;2023-12-20T01:23:39;3.10;;;1.30;;
64686;SDS011;51113;53.646;-113.674;2023-12-20T01:26:08;4.13;;;1.88;;
64686;SDS011;51113;53.646;-113.674;2023-12-20T01:28:37;8.52;;;1.90;;
64686;SDS011;51113;53.646;-113.674;2023-12-20T01:31:06;3.40;;;1.83;;
64686;SDS011;51113;53.646;-113.674;2023-12-20T01:33:36;2.08;;;1.35;;
64686;SDS011;51113;53.646;-113.674;2023-12-20T01:36:05;2.42;;;1.40;;
64686;SDS011;51113;53.646;-113.674;2023-12-20T01:38:34;3.67;;;1.80;;
64686;SDS011;51113;53.646;-113.674;2023-12-20T01:41:02;3.22;;;1.15;;
64686;SDS011;51113;53.646;-113.674;2023-12-20T01:43:31;2.25;;;1.13;;
64686;SDS011;51113;53.646;-113.674;2023-12-20T01:46:13;4.47;;;1.40;;
64686;SDS011;51113;53.646;-113.674;2023-12-20T01:48:43;3.25;;;1.25;;
64686;SDS011;51113;53.646;-113.674;2023-12-20T01:51:12;2.30;;;1.38;;
64686;SDS011;51113;53.646;-113.674;2023-12-20T01:53:41;2.25;;;1.10;;
64686;SDS011;51113;53.646;-113.674;2023-12-20T01:56:11;1.30;;;1.05;;
64686;SDS011;51113;53.646;-113.674;2023-12-20T01:58:43;1.30;;;1.05;;
64686;SDS011;51113;53.646;-113.674;2023-12-20T02:01:13;2.20;;;1.10;;
64686;SDS011;51113;53.646;-113.674;2023-12-20T02:03:43;2.83;;;1.20;;
64686;SDS011;51113;53.646;-113.674;2023-12-20T02:06:12;3.10;;;1.20;;
64686;SDS011;51113;53.646;-113.674;2023-12-20T02:08:41;3.83;;;1.05;;
64686;SDS011;51113;53.646;-113.674;2023-12-20T02:11:10;1.00;;;0.90;;
64686;SDS011;51113;53.646;-113.674;2023-12-20T02:13:38;0.95;;;0.85;;
64686;SDS011;51113;53.646;-113.674;2023-12-20T02:16:07;1.73;;;1.13;;
64686;SDS011;51113;53.646;-113.674;2023-12-20T02:18:36;2.08;;;1.27;;
64686;SDS011;51113;53.646;-113.674;2023-12-20T02:21:05;1.50;;;1.20;;
64686;SDS011;51113;53.646;-113.674;2023-12-20T02:23:34;5.15;;;1.25;;
64686;SDS011;51113;53.646;-113.674;2023-12-20T02:26:03;2.03;;;1.25;;
64686;SDS011;51113;53.646;-113.674;2023-12-20T02:28:33;2.70;;;1.45;;
64686;SDS011;51113;53.646;-113.674;2023-12-20T02:31:02;1.10;;;1.00;;
64686;SDS011;51113;53.646;-113.674;2023-12-20T02:33:31;1.00;;;0.90;;
64686;SDS011;51113;53.646;-113.674;2023-12-20T02:35:59;1.42;;;1.23;;
64686;SDS011;51113;53.646;-113.674;2023-12-20T02:38:28;1.38;;;1.00;;
64686;SDS011;51113;53.646;-113.674;2023-12-20T02:40:57;1.98;;;1.00;;
64686;SDS011;51113;53.646;-113.674;2023-12-20T02:43:25;2.40;;;1.13;;
64686;SDS011;51113;53.646;-113.674;2023-12-20T02:45:54;1.20;;;1.00;;
64686;SDS011;51113;53.646;-113.674;2023-12-20T02:48:23;1.33;;;1.10;;
64686;SDS011;51113;53.646;-113.674;2023-12-20T02:50:52;1.17;;;1.00;;
64686;SDS011;51113;53.646;-113.674;2023-12-20T02:53:20;1.45;;;1.00;;
64686;SDS011;51113;53.646;-113.674;2023-12-20T02:55:49;1.80;;;1.30;;
64686;SDS011;51113;53.646;-113.674;2023-12-20T02:58:18;1.85;;;1.20;;
64686;SDS011;51113;53.646;-113.674;2023-12-20T03:00:46;2.25;;;1.10;;
64686;SDS011;51113;53.646;-113.674;2023-12-20T03:03:15;1.33;;;1.00;;
64686;SDS011;51113;53.646;-113.674;2023-12-20T03:05:44;2.75;;;0.80;;
64686;SDS011;51113;53.646;-113.674;2023-12-20T03:08:14;1.52;;;0.98;;
64686;SDS011;51113;53.646;-113.674;2023-12-20T03:10:43;1.40;;;1.00;;
64686;SDS011;51113;53.646;-113.674;2023-12-20T03:13:12;1.17;;;1.00;;
64686;SDS011;51113;53.646;-113.674;2023-12-20T03:15:40;2.03;;;1.20;;
64686;SDS011;51113;53.646;-113.674;2023-12-20T03:18:09;1.65;;;1.20;;
64686;SDS011;51113;53.646;-113.674;2023-12-20T03:20:38;1.55;;;1.10;;
64686;SDS011;51113;53.646;-113.674;2023-12-20T03:23:11;1.52;;;1.20;;
64686;SDS011;51113;53.646;-113.674;2023-12-20T03:25:40;1.10;;;1.00;;
64686;SDS011;51113;53.646;-113.674;2023-12-20T03:28:09;1.58;;;1.17;;
64686;SDS011;51113;53.646;-113.674;2023-12-20T03:30:38;1.55;;;0.90;;
64686;SDS011;51113;53.646;-113.674;2023-12-20T03:33:07;1.77;;;1.15;;
64686;SDS011;51113;53.646;-113.674;2023-12-20T03:35:36;5.38;;;1.15;;
64686;SDS011;51113;53.646;-113.674;2023-12-20T03:38:04;1.55;;;1.27;;
64686;SDS011;51113;53.646;-113.674;2023-12-20T03:40:33;4.22;;;0.98;;
64686;SDS011;51113;53.646;-113.674;2023-12-20T03:43:02;1.20;;;0.80;;
64686;SDS011;51113;53.646;-113.674;2023-12-20T03:45:31;4.88;;;1.30;;
64686;SDS011;51113;53.646;-113.674;2023-12-20T03:47:59;1.88;;;1.25;;
64686;SDS011;51113;53.646;-113.674;2023-12-20T03:50:28;0.60;;;0.60;;
64686;SDS011;51113;53.646;-113.674;2023-12-20T03:52:57;0.80;;;0.80;;
64686;SDS011;51113;53.646;-113.674;2023-12-20T03:55:26;1.20;;;1.00;;
64686;SDS011;51113;53.646;-113.674;2023-12-20T03:57:55;2.28;;;1.00;;
64686;SDS011;51113;53.646;-113.674;2023-12-20T04:00:23;1.02;;;0.90;;
64686;SDS011;51113;53.646;-113.674;2023-12-20T04:02:52;1.00;;;0.80;;
64686;SDS011;51113;53.646;-113.674;2023-12-20T04:05:21;0.70;;;0.70;;
64686;SDS011;51113;53.646;-113.674;2023-12-20T04:07:50;1.05;;;0.85;;
64686;SDS011;51113;53.646;-113.674;2023-12-20T04:10:18;0.93;;;0.85;;
64686;SDS011;51113;53.646;-113.674;2023-12-20T04:12:47;1.05;;;0.80;;
64686;SDS011;51113;53.646;-113.674;2023-12-20T04:15:16;0.95;;;0.73;;
64686;SDS011;51113;53.646;-113.674;2023-12-20T04:17:44;0.90;;;0.90;;
64686;SDS011;51113;53.646;-113.674;2023-12-20T04:20:14;5.13;;;1.23;;
64686;SDS011;51113;53.646;-113.674;2023-12-20T04:22:43;0.70;;;0.70;;
64686;SDS011;51113;53.646;-113.674;2023-12-20T04:25:11;0.95;;;0.93;;
64686;SDS011;51113;53.646;-113.674;2023-12-20T04:27:40;1.60;;;1.00;;
64686;SDS011;51113;53.646;-113.674;2023-12-20T04:30:09;1.35;;;1.02;;
64686;SDS011;51113;53.646;-113.674;2023-12-20T04:32:38;0.93;;;0.80;;
64686;SDS011;51113;53.646;-113.674;2023-12-20T04:35:07;0.82;;;0.82;;
64686;SDS011;51113;53.646;-113.674;2023-12-20T04:37:36;1.17;;;0.90;;
64686;SDS011;51113;53.646;-113.674;2023-12-20T04:40:05;0.82;;;0.80;;
64686;SDS011;51113;53.646;-113.674;2023-12-20T04:42:35;0.80;;;0.80;;
64686;SDS011;51113;53.646;-113.674;2023-12-20T04:45:04;1.10;;;1.00;;
64686;SDS011;51113;53.646;-113.674;2023-12-20T04:47:33;0.98;;;0.80;;
64686;SDS011;51113;53.646;-113.674;2023-12-20T04:50:02;2.92;;;1.10;;
64686;SDS011;51113;53.646;-113.674;2023-12-20T04:52:32;2.95;;;1.65;;
64686;SDS011;51113;53.646;-113.674;2023-12-20T04:55:01;0.80;;;0.80;;
64686;SDS011;51113;53.646;-113.674;2023-12-20T04:57:29;1.98;;;1.10;;
64686;SDS011;51113;53.646;-113.674;2023-12-20T04:59:58;2.17;;;0.90;;
64686;SDS011;51113;53.646;-113.674;2023-12-20T05:02:27;1.98;;;0.93;;
64686;SDS011;51113;53.646;-113.674;2023-12-20T05:04:55;1.15;;;1.05;;
64686;SDS011;51113;53.646;-113.674;2023-12-20T05:07:24;7.53;;;0.90;;
64686;SDS011;51113;53.646;-113.674;2023-12-20T05:09:53;2.00;;;0.90;;
64686;SDS011;51113;53.646;-113.674;2023-12-20T05:12:21;1.02;;;0.90;;
64686;SDS011;51113;53.646;-113.674;2023-12-20T05:14:51;1.60;;;1.15;;
64686;SDS011;51113;53.646;-113.674;2023-12-20T05:17:20;1.17;;;0.90;;
64686;SDS011;51113;53.646;-113.674;2023-12-20T05:19:49;1.50;;;1.10;;
64686;SDS011;51113;53.646;-113.674;2023-12-20T05:22:18;3.00;;;0.80;;
64686;SDS011;51113;53.646;-113.674;2023-12-20T05:24:48;0.80;;;0.75;;
64686;SDS011;51113;53.646;-113.674;2023-12-20T05:27:17;1.50;;;1.00;;
64686;SDS011;51113;53.646;-113.674;2023-12-20T05:29:46;1.10;;;1.00;;
64686;SDS011;51113;53.646;-113.674;2023-12-20T05:32:14;0.82;;;0.80;;
64686;SDS011;51113;53.646;-113.674;2023-12-20T05:34:43;0.80;;;0.77;;
64686;SDS011;51113;53.646;-113.674;2023-12-20T05:37:12;6.18;;;1.05;;
64686;SDS011;51113;53.646;-113.674;2023-12-20T05:39:40;2.33;;;0.80;;
64686;SDS011;51113;53.646;-113.674;2023-12-20T05:42:08;1.17;;;0.85;;
64686;SDS011;51113;53.646;-113.674;2023-12-20T05:44:37;1.38;;;0.95;;
64686;SDS011;51113;53.646;-113.674;2023-12-20T05:47:06;1.33;;;0.90;;
64686;SDS011;51113;53.646;-113.674;2023-12-20T05:49:34;1.38;;;0.77;;
64686;SDS011;51113;53.646;-113.674;2023-12-20T05:52:03;2.25;;;1.02;;
64686;SDS011;51113;53.646;-113.674;2023-12-20T05:54:32;3.97;;;1.00;;
64686;SDS011;51113;53.646;-113.674;2023-12-20T05:57:02;1.20;;;1.10;;
64686;SDS011;51113;53.646;-113.674;2023-12-20T05:59:30;1.20;;;0.82;;
64686;SDS011;51113;53.646;-113.674;2023-12-20T06:01:58;0.80;;;0.77;;
64686;SDS011;51113;53.646;-113.674;2023-12-20T06:04:27;1.45;;;1.00;;
64686;SDS011;51113;53.646;-113.674;2023-12-20T06:06:57;5.35;;;0.90;;
64686;SDS011;51113;53.646;-113.674;2023-12-20T06:09:29;5.35;;;0.95;;
64686;SDS011;51113;53.646;-113.674;2023-12-20T06:11:57;2.30;;;0.90;;
64686;SDS011;51113;53.646;-113.674;2023-12-20T06:14:26;0.80;;;0.80;;
64686;SDS011;51113;53.646;-113.674;2023-12-20T06:16:55;1.25;;;1.00;;
64686;SDS011;51113;53.646;-113.674;2023-12-20T06:19:24;1.25;;;0.90;;
64686;SDS011;51113;53.646;-113.674;2023-12-20T06:21:52;1.63;;;1.15;;
64686;SDS011;51113;53.646;-113.674;2023-12-20T06:24:21;0.75;;;0.75;;
64686;SDS011;51113;53.646;-113.674;2023-12-20T06:26:50;1.40;;;0.95;;
64686;SDS011;51113;53.646;-113.674;2023-12-20T06:29:19;1.17;;;1.08;;
64686;SDS011;51113;53.646;-113.674;2023-12-20T06:31:47;1.92;;;1.33;;
64686;SDS011;51113;53.646;-113.674;2023-12-20T06:34:16;2.25;;;1.02;;
64686;SDS011;51113;53.646;-113.674;2023-12-20T06:36:45;1.55;;;1.20;;
64686;SDS011;51113;53.646;-113.674;2023-12-20T06:39:14;1.00;;;0.90;;
64686;SDS011;51113;53.646;-113.674;2023-12-20T06:41:42;1.38;;;1.13;;
64686;SDS011;51113;53.646;-113.674;2023-12-20T06:44:11;1.17;;;0.90;;
64686;SDS011;51113;53.646;-113.674;2023-12-20T06:46:40;1.00;;;0.90;;
64686;SDS011;51113;53.646;-113.674;2023-12-20T06:49:08;6.90;;;0.90;;
64686;SDS011;51113;53.646;-113.674;2023-12-20T06:51:37;1.38;;;1.00;;
64686;SDS011;51113;53.646;-113.674;2023-12-20T06:54:06;1.38;;;1.00;;
64686;SDS011;51113;53.646;-113.674;2023-12-20T06:56:35;0.90;;;0.80;;
64686;SDS011;51113;53.646;-113.674;2023-12-20T06:59:03;1.65;;;1.00;;
64686;SDS011;51113;53.646;-113.674;2023-12-20T07:01:32;1.38;;;0.95;;
64686;SDS011;51113;53.646;-113.674;2023-12-20T07:04:01;1.77;;;0.85;;
64686;SDS011;51113;53.646;-113.674;2023-12-20T07:06:29;1.75;;;1.25;;
64686;SDS011;51113;53.646;-113.674;2023-12-20T07:08:58;3.20;;;1.10;;
64686;SDS011;51113;53.646;-113.674;2023-12-20T07:11:27;1.20;;;1.10;;
64686;SDS011;51113;53.646;-113.674;2023-12-20T07:13:55;2.53;;;1.33;;
64686;SDS011;51113;53.646;-113.674;2023-12-20T07:16:24;1.63;;;1.05;;
64686;SDS011;51113;53.646;-113.674;2023-12-20T07:18:53;1.40;;;1.10;;
64686;SDS011;51113;53.646;-113.674;2023-12-20T07:21:21;2.05;;;0.90;;
64686;SDS011;51113;53.646;-113.674;2023-12-20T07:23:50;1.48;;;1.08;;
64686;SDS011;51113;53.646;-113.674;2023-12-20T07:26:19;0.98;;;0.95;;
64686;SDS011;51113;53.646;-113.674;2023-12-20T07:28:49;2.25;;;1.13;;
64686;SDS011;51113;53.646;-113.674;2023-12-20T07:31:17;2.38;;;1.15;;
64686;SDS011;51113;53.646;-113.674;2023-12-20T07:33:46;1.40;;;1.17;;
64686;SDS011;51113;53.646;-113.674;2023-12-20T07:36:15;1.48;;;1.02;;
64686;SDS011;51113;53.646;-113.674;2023-12-20T07:38:44;1.90;;;1.20;;
64686;SDS011;51113;53.646;-113.674;2023-12-20T07:41:13;2.92;;;1.10;;
64686;SDS011;51113;53.646;-113.674;2023-12-20T07:43:43;2.47;;;1.25;;
64686;SDS011;51113;53.646;-113.674;2023-12-20T07:46:12;1.42;;;1.20;;
64686;SDS011;51113;53.646;-113.674;2023-12-20T07:48:41;1.92;;;1.10;;
64686;SDS011;51113;53.646;-113.674;2023-12-20T07:51:11;3.28;;;1.13;;
64686;SDS011;51113;53.646;-113.674;2023-12-20T07:53:40;1.70;;;1.13;;
64686;SDS011;51113;53.646;-113.674;2023-12-20T07:56:15;4.80;;;1.63;;
64686;SDS011;51113;53.646;-113.674;2023-12-20T07:58:46;1.08;;;0.98;;
64686;SDS011;51113;53.646;-113.674;2023-12-20T08:01:19;1.60;;;1.00;;
64686;SDS011;51113;53.646;-113.674;2023-12-20T08:03:49;2.88;;;1.02;;
64686;SDS011;51113;53.646;-113.674;2023-12-20T08:06:18;1.35;;;1.00;;
64686;SDS011;51113;53.646;-113.674;2023-12-20T08:08:48;3.60;;;1.10;;
64686;SDS011;51113;53.646;-113.674;2023-12-20T08:11:27;0.80;;;0.80;;
64686;SDS011;51113;53.646;-113.674;2023-12-20T08:13:57;2.22;;;1.27;;
64686;SDS011;51113;53.646;-113.674;2023-12-20T08:16:26;3.45;;;1.13;;
64686;SDS011;51113;53.646;-113.674;2023-12-20T08:18:54;1.17;;;1.08;;
64686;SDS011;51113;53.646;-113.674;2023-12-20T08:21:23;1.20;;;0.82;;
64686;SDS011;51113;53.646;-113.674;2023-12-20T08:23:52;4.13;;;1.10;;
64686;SDS011;51113;53.646;-113.674;2023-12-20T08:26:20;1.42;;;1.10;;
64686;SDS011;51113;53.646;-113.674;2023-12-20T08:28:50;1.10;;;0.95;;
64686;SDS011;51113;53.646;-113.674;2023-12-20T08:31:19;2.40;;;1.50;;
64686;SDS011;51113;53.646;-113.674;2023-12-20T08:33:49;1.05;;;0.95;;
64686;SDS011;51113;53.646;-113.674;2023-12-20T08:36:19;1.58;;;1.08;;
64686;SDS011;51113;53.646;-113.674;2023-12-20T08:38:50;6.88;;;1.10;;
64686;SDS011;51113;53.646;-113.674;2023-12-20T08:41:18;1.60;;;1.10;;
64686;SDS011;51113;53.646;-113.674;2023-12-20T08:43:48;3.13;;;1.17;;
64686;SDS011;51113;53.646;-113.674;2023-12-20T08:46:17;1.27;;;0.90;;
64686;SDS011;51113;53.646;-113.674;2023-12-20T08:48:45;5.20;;;1.48;;
64686;SDS011;51113;53.646;-113.674;2023-12-20T08:51:14;1.60;;;1.27;;
64686;SDS011;51113;53.646;-113.674;2023-12-20T08:53:43;1.25;;;1.02;;
64686;SDS011;51113;53.646;-113.674;2023-12-20T08:56:13;1.48;;;1.05;;
64686;SDS011;51113;53.646;-113.674;2023-12-20T08:58:41;2.80;;;1.45;;
64686;SDS011;51113;53.646;-113.674;2023-12-20T09:01:10;1.63;;;1.00;;
64686;SDS011;51113;53.646;-113.674;2023-12-20T09:03:39;1.27;;;1.17;;
64686;SDS011;51113;53.646;-113.674;2023-12-20T09:06:08;2.42;;;1.23;;
64686;SDS011;51113;53.646;-113.674;2023-12-20T09:08:37;2.03;;;1.45;;
64686;SDS011;51113;53.646;-113.674;2023-12-20T09:11:06;2.47;;;1.17;;
64686;SDS011;51113;53.646;-113.674;2023-12-20T09:13:35;0.80;;;0.80;;
64686;SDS011;51113;53.646;-113.674;2023-12-20T09:16:04;2.15;;;1.48;;
64686;SDS011;51113;53.646;-113.674;2023-12-20T09:18:34;1.00;;;0.90;;
64686;SDS011;51113;53.646;-113.674;2023-12-20T09:21:03;1.60;;;1.05;;
64686;SDS011;51113;53.646;-113.674;2023-12-20T09:23:31;1.85;;;1.20;;
64686;SDS011;51113;53.646;-113.674;2023-12-20T09:26:00;2.03;;;1.17;;
64686;SDS011;51113;53.646;-113.674;2023-12-20T09:28:29;1.30;;;1.10;;
64686;SDS011;51113;53.646;-113.674;2023-12-20T09:30:57;0.85;;;0.82;;
64686;SDS011;51113;53.646;-113.674;2023-12-20T09:33:26;1.92;;;1.10;;
64686;SDS011;51113;53.646;-113.674;2023-12-20T09:35:55;2.63;;;1.17;;
64686;SDS011;51113;53.646;-113.674;2023-12-20T09:38:24;1.92;;;1.20;;
64686;SDS011;51113;53.646;-113.674;2023-12-20T09:40:52;3.78;;;1.52;;
64686;SDS011;51113;53.646;-113.674;2023-12-20T09:43:23;6.18;;;1.13;;
64686;SDS011;51113;53.646;-113.674;2023-12-20T09:45:53;1.10;;;1.00;;
64686;SDS011;51113;53.646;-113.674;2023-12-20T09:48:27;4.47;;;1.38;;
64686;SDS011;51113;53.646;-113.674;2023-12-20T09:50:56;1.30;;;1.00;;
64686;SDS011;51113;53.646;-113.674;2023-12-20T09:53:25;3.83;;;1.10;;
64686;SDS011;51113;53.646;-113.674;2023-12-20T09:56:00;1.40;;;1.02;;
64686;SDS011;51113;53.646;-113.674;2023-12-20T09:58:30;1.83;;;1.10;;
64686;SDS011;51113;53.646;-113.674;2023-12-20T10:00:58;1.77;;;1.30;;
64686;SDS011;51113;53.646;-113.674;2023-12-20T10:03:28;1.55;;;1.10;;
64686;SDS011;51113;53.646;-113.674;2023-12-20T10:05:58;2.65;;;1.42;;
64686;SDS011;51113;53.646;-113.674;2023-12-20T10:08:28;1.05;;;0.90;;
64686;SDS011;51113;53.646;-113.674;2023-12-20T10:10:58;1.50;;;1.15;;
64686;SDS011;51113;53.646;-113.674;2023-12-20T10:13:30;2.28;;;1.35;;
64686;SDS011;51113;53.646;-113.674;2023-12-20T10:15:59;1.30;;;1.10;;
64686;SDS011;51113;53.646;-113.674;2023-12-20T10:18:29;2.55;;;1.00;;
64686;SDS011;51113;53.646;-113.674;2023-12-20T10:21:05;14.10;;;1.70;;
64686;SDS011;51113;53.646;-113.674;2023-12-20T10:23:37;2.17;;;1.30;;
64686;SDS011;51113;53.646;-113.674;2023-12-20T10:26:10;4.38;;;1.73;;
64686;SDS011;51113;53.646;-113.674;2023-12-20T10:28:50;2.38;;;1.52;;
64686;SDS011;51113;53.646;-113.674;2023-12-20T10:31:33;1.90;;;1.15;;
64686;SDS011;51113;53.646;-113.674;2023-12-20T10:34:02;4.55;;;1.50;;
64686;SDS011;51113;53.646;-113.674;2023-12-20T10:36:32;2.10;;;1.30;;
64686;SDS011;51113;53.646;-113.674;2023-12-20T10:39:01;3.15;;;1.50;;
64686;SDS011;51113;53.646;-113.674;2023-12-20T10:41:31;3.10;;;1.25;;
64686;SDS011;51113;53.646;-113.674;2023-12-20T10:44:01;6.15;;;1.77;;
64686;SDS011;51113;53.646;-113.674;2023-12-20T10:46:33;4.00;;;1.70;;
64686;SDS011;51113;53.646;-113.674;2023-12-20T10:49:02;3.30;;;1.40;;
64686;SDS011;51113;53.646;-113.674;2023-12-20T10:51:33;2.55;;;1.25;;
64686;SDS011;51113;53.646;-113.674;2023-12-20T10:54:02;1.15;;;1.00;;
64686;SDS011;51113;53.646;-113.674;2023-12-20T10:56:32;1.92;;;1.52;;
64686;SDS011;51113;53.646;-113.674;2023-12-20T10:59:02;2.88;;;1.80;;
64686;SDS011;51113;53.646;-113.674;2023-12-20T11:01:33;2.95;;;1.60;;
64686;SDS011;51113;53.646;-113.674;2023-12-20T11:04:03;4.38;;;1.55;;
64686;SDS011;51113;53.646;-113.674;2023-12-20T11:09:33;2.38;;;1.58;;
64686;SDS011;51113;53.646;-113.674;2023-12-20T11:12:20;4.07;;;1.90;;
64686;SDS011;51113;53.646;-113.674;2023-12-20T11:15:12;10.73;;;1.52;;
64686;SDS011;51113;53.646;-113.674;2023-12-20T11:17:46;3.83;;;2.08;;
64686;SDS011;51113;53.646;-113.674;2023-12-20T11:20:22;14.23;;;2.25;;
64686;SDS011;51113;53.646;-113.674;2023-12-20T11:22:52;9.82;;;2.63;;
64686;SDS011;51113;53.646;-113.674;2023-12-20T11:25:22;3.10;;;1.73;;
64686;SDS011;51113;53.646;-113.674;2023-12-20T11:28:10;3.55;;;2.25;;
64686;SDS011;51113;53.646;-113.674;2023-12-20T11:30:46;1.98;;;1.50;;
64686;SDS011;51113;53.646;-113.674;2023-12-20T11:33:16;3.63;;;1.63;;
64686;SDS011;51113;53.646;-113.674;2023-12-20T11:35:52;5.45;;;1.70;;
64686;SDS011;51113;53.646;-113.674;2023-12-20T11:38:24;4.87;;;2.53;;
64686;SDS011;51113;53.646;-113.674;2023-12-20T11:40:54;6.03;;;2.10;;
64686;SDS011;51113;53.646;-113.674;2023-12-20T11:43:36;4.60;;;2.17;;
64686;SDS011;51113;53.646;-113.674;2023-12-20T11:46:06;3.88;;;1.83;;
64686;SDS011;51113;53.646;-113.674;2023-12-20T11:48:37;4.07;;;1.88;;
64686;SDS011;51113;53.646;-113.674;2023-12-20T11:51:12;6.63;;;2.58;;
64686;SDS011;51113;53.646;-113.674;2023-12-20T11:53:41;5.05;;;2.10;;
64686;SDS011;51113;53.646;-113.674;2023-12-20T11:56:13;5.38;;;2.42;;
64686;SDS011;51113;53.646;-113.674;2023-12-20T11:58:41;4.85;;;1.90;;
64686;SDS011;51113;53.646;-113.674;2023-12-20T12:01:13;4.97;;;2.20;;
64686;SDS011;51113;53.646;-113.674;2023-12-20T12:03:42;8.80;;;2.30;;
64686;SDS011;51113;53.646;-113.674;2023-12-20T12:06:10;5.47;;;2.35;;
64686;SDS011;51113;53.646;-113.674;2023-12-20T12:08:40;6.80;;;2.38;;
64686;SDS011;51113;53.646;-113.674;2023-12-20T12:11:10;3.67;;;1.88;;
64686;SDS011;51113;53.646;-113.674;2023-12-20T12:13:39;3.53;;;1.92;;
64686;SDS011;51113;53.646;-113.674;2023-12-20T12:16:08;6.40;;;2.30;;
64686;SDS011;51113;53.646;-113.674;2023-12-20T12:18:38;4.88;;;2.22;;
64686;SDS011;51113;53.646;-113.674;2023-12-20T12:21:09;3.80;;;1.95;;
64686;SDS011;51113;53.646;-113.674;2023-12-20T12:23:44;17.35;;;2.53;;
64686;SDS011;51113;53.646;-113.674;2023-12-20T12:26:13;5.07;;;2.28;;
64686;SDS011;51113;53.646;-113.674;2023-12-20T12:28:42;7.50;;;2.63;;
64686;SDS011;51113;53.646;-113.674;2023-12-20T12:31:14;5.25;;;2.65;;
64686;SDS011;51113;53.646;-113.674;2023-12-20T12:33:46;4.88;;;2.53;;
64686;SDS011;51113;53.646;-113.674;2023-12-20T12:36:15;6.55;;;2.97;;
64686;SDS011;51113;53.646;-113.674;2023-12-20T12:38:45;5.00;;;2.65;;
64686;SDS011;51113;53.646;-113.674;2023-12-20T12:41:14;5.78;;;2.60;;
64686;SDS011;51113;53.646;-113.674;2023-12-20T12:43:43;6.35;;;2.72;;
64686;SDS011;51113;53.646;-113.674;2023-12-20T12:46:12;5.65;;;2.78;;
64686;SDS011;51113;53.646;-113.674;2023-12-20T12:48:41;6.28;;;2.05;;
64686;SDS011;51113;53.646;-113.674;2023-12-20T12:51:12;9.85;;;2.90;;
64686;SDS011;51113;53.646;-113.674;2023-12-20T12:53:41;4.22;;;2.53;;
64686;SDS011;51113;53.646;-113.674;2023-12-20T12:56:10;7.97;;;3.65;;
64686;SDS011;51113;53.646;-113.674;2023-12-20T12:58:42;7.47;;;3.28;;
64686;SDS011;51113;53.646;-113.674;2023-12-20T13:01:11;5.72;;;2.60;;
64686;SDS011;51113;53.646;-113.674;2023-12-20T13:03:40;8.45;;;2.95;;
64686;SDS011;51113;53.646;-113.674;2023-12-20T13:06:09;15.52;;;3.15;;
64686;SDS011;51113;53.646;-113.674;2023-12-20T13:08:38;10.65;;;3.65;;
64686;SDS011;51113;53.646;-113.674;2023-12-20T13:11:06;11.88;;;3.22;;
64686;SDS011;51113;53.646;-113.674;2023-12-20T13:13:34;7.30;;;2.55;;
64686;SDS011;51113;53.646;-113.674;2023-12-20T13:16:03;6.85;;;3.33;;
64686;SDS011;51113;53.646;-113.674;2023-12-20T13:18:32;15.90;;;4.25;;
64686;SDS011;51113;53.646;-113.674;2023-12-20T13:21:01;10.32;;;3.92;;
64686;SDS011;51113;53.646;-113.674;2023-12-20T13:23:30;9.10;;;3.65;;
64686;SDS011;51113;53.646;-113.674;2023-12-20T13:25:59;8.35;;;3.25;;
64686;SDS011;51113;53.646;-113.674;2023-12-20T13:28:27;10.98;;;3.38;;
64686;SDS011;51113;53.646;-113.674;2023-12-20T13:30:56;8.48;;;2.90;;
64686;SDS011;51113;53.646;-113.674;2023-12-20T13:33:25;10.32;;;3.10;;
64686;SDS011;51113;53.646;-113.674;2023-12-20T13:35:54;12.50;;;3.50;;
64686;SDS011;51113;53.646;-113.674;2023-12-20T13:38:24;10.07;;;4.32;;
64686;SDS011;51113;53.646;-113.674;2023-12-20T13:40:52;10.23;;;3.25;;
64686;SDS011;51113;53.646;-113.674;2023-12-20T13:43:21;8.98;;;2.70;;
64686;SDS011;51113;53.646;-113.674;2023-12-20T13:45:50;9.35;;;3.25;;
64686;SDS011;51113;53.646;-113.674;2023-12-20T13:48:19;7.70;;;3.17;;
64686;SDS011;51113;53.646;-113.674;2023-12-20T13:50:48;9.18;;;3.30;;
64686;SDS011;51113;53.646;-113.674;2023-12-20T13:53:17;8.93;;;4.13;;
64686;SDS011;51113;53.646;-113.674;2023-12-20T13:55:46;8.27;;;3.33;;
64686;SDS011;51113;53.646;-113.674;2023-12-20T13:58:15;10.73;;;4.32;;
64686;SDS011;51113;53.646;-113.674;2023-12-20T14:00:44;16.85;;;4.57;;
64686;SDS011;51113;53.646;-113.674;2023-12-20T14:03:13;7.18;;;3.75;;
64686;SDS011;51113;53.646;-113.674;2023-12-20T14:05:41;10.38;;;4.47;;
64686;SDS011;51113;53.646;-113.674;2023-12-20T14:08:10;7.75;;;3.78;;
64686;SDS011;51113;53.646;-113.674;2023-12-20T14:10:39;7.68;;;3.67;;
64686;SDS011;51113;53.646;-113.674;2023-12-20T14:13:08;17.17;;;5.13;;
64686;SDS011;51113;53.646;-113.674;2023-12-20T14:15:37;9.43;;;4.38;;
64686;SDS011;51113;53.646;-113.674;2023-12-20T14:18:05;12.73;;;4.10;;
64686;SDS011;51113;53.646;-113.674;2023-12-20T14:20:35;13.25;;;4.47;;
64686;SDS011;51113;53.646;-113.674;2023-12-20T14:23:06;10.25;;;3.80;;
64686;SDS011;51113;53.646;-113.674;2023-12-20T14:25:35;16.13;;;3.58;;